createdAt,value
2018-06-01T00:02:05.162Z,26.50
2018-06-01T00:04:33.217Z,29.03
2018-06-01T00:07:01.300Z,31.63
2018-06-01T00:09:29.348Z,33.63
2018-06-01T00:11:57.382Z,27.33
2018-06-01T00:14:25.469Z,32.30
2018-06-01T00:16:53.514Z,30.73
2018-06-01T00:19:22.365Z,30.60
2018-06-01T00:21:50.439Z,30.87
2018-06-01T00:24:18.490Z,31.60
2018-06-01T00:26:46.556Z,34.03
2018-06-01T00:29:14.614Z,29.47
2018-06-01T00:31:42.681Z,35.23
2018-06-01T00:34:10.763Z,31.90
2018-06-01T00:36:38.849Z,35.00
2018-06-01T00:39:06.900Z,34.40
2018-06-01T00:41:34.961Z,30.37
2018-06-01T00:44:03.770Z,32.77
2018-06-01T00:46:31.843Z,35.13
2018-06-01T00:48:59.909Z,33.53
2018-06-01T00:51:27.964Z,30.57
2018-06-01T00:53:56.042Z,32.90
2018-06-01T00:56:24.091Z,33.03
2018-06-01T00:58:52.910Z,35.40
2018-06-01T01:01:20.995Z,31.00
2018-06-01T01:03:49.075Z,37.70
2018-06-01T01:06:18.006Z,35.70
2018-06-01T01:08:46.075Z,40.20
2018-06-01T01:11:14.121Z,34.40
2018-06-01T01:13:42.793Z,34.47
2018-06-01T01:16:10.870Z,37.50
2018-06-01T01:18:38.943Z,35.00
2018-06-01T01:21:06.994Z,35.63
2018-06-01T01:23:35.055Z,37.80
2018-06-01T01:26:03.117Z,44.70
2018-06-01T01:28:31.211Z,47.00
2018-06-01T01:30:59.283Z,35.90
2018-06-01T01:33:27.337Z,39.23
2018-06-01T01:35:55.414Z,38.60
2018-06-01T01:38:23.486Z,41.87
2018-06-01T01:40:58.457Z,39.50
2018-06-01T01:43:26.545Z,42.80
2018-06-01T01:45:54.634Z,39.80
2018-06-01T01:48:22.644Z,42.40
2018-06-01T01:50:50.702Z,40.97
2018-06-01T01:53:18.755Z,42.20
2018-06-01T01:55:47.659Z,39.20
2018-06-01T01:58:15.692Z,42.87
2018-06-01T02:00:43.732Z,42.47
2018-06-01T02:03:11.822Z,46.73
2018-06-01T02:05:39.881Z,47.93
2018-06-01T02:08:08.024Z,47.17
2018-06-01T02:10:36.048Z,43.80
2018-06-01T02:13:04.098Z,40.07
2018-06-01T02:15:32.162Z,46.93
2018-06-01T02:18:00.230Z,38.80
2018-06-01T02:20:28.298Z,41.27
2018-06-01T02:22:56.365Z,40.80
2018-06-01T02:25:24.437Z,44.00
2018-06-01T02:27:52.493Z,38.60
2018-06-01T02:30:21.123Z,46.30
2018-06-01T02:32:49.202Z,48.53
2018-06-01T02:35:17.262Z,38.60
2018-06-01T02:37:45.314Z,46.60
2018-06-01T02:40:13.368Z,45.47
2018-06-01T02:42:41.444Z,39.57
2018-06-01T02:45:09.503Z,49.97
2018-06-01T02:47:37.572Z,41.60
2018-06-01T02:50:05.619Z,45.80
2018-06-01T02:52:34.546Z,41.97
2018-06-01T02:55:02.592Z,41.40
2018-06-01T02:57:31.411Z,44.70
2018-06-01T02:59:59.513Z,46.20
2018-06-01T03:02:27.582Z,46.67
2018-06-01T03:04:55.638Z,49.20
2018-06-01T03:07:23.701Z,48.43
2018-06-01T03:09:51.757Z,52.20
2018-06-01T03:12:19.829Z,56.17
2018-06-01T03:14:47.905Z,52.40
2018-06-01T03:17:15.987Z,50.63
2018-06-01T03:19:44.055Z,50.77
2018-06-01T03:22:12.102Z,55.47
2018-06-01T03:24:40.939Z,50.53
2018-06-01T03:27:08.985Z,56.03
2018-06-01T03:29:37.084Z,51.53
2018-06-01T03:32:05.147Z,52.40
2018-06-01T03:34:33.205Z,45.90
2018-06-01T03:37:01.356Z,55.30
2018-06-01T03:39:29.365Z,48.67
2018-06-01T03:41:57.418Z,51.40
2018-06-01T03:44:25.492Z,48.00
2018-06-01T03:46:53.549Z,52.83
2018-06-01T03:49:21.627Z,53.60
2018-06-01T03:51:49.680Z,49.83
2018-06-01T03:54:18.580Z,54.97
2018-06-01T03:56:46.588Z,54.67
2018-06-01T03:59:14.669Z,59.00
2018-06-01T04:01:42.721Z,55.83
2018-06-01T04:04:10.867Z,54.43
2018-06-01T04:06:38.893Z,54.70
2018-06-01T04:09:06.966Z,53.60
2018-06-01T04:11:35.577Z,52.60
2018-06-01T04:14:04.468Z,51.77
2018-06-01T04:16:33.307Z,52.07
2018-06-01T04:19:01.367Z,54.37
2018-06-01T04:21:29.429Z,54.70
2018-06-01T04:23:57.477Z,54.50
2018-06-01T04:26:26.311Z,56.03
2018-06-01T04:28:54.370Z,53.40
2018-06-01T04:31:22.455Z,52.20
2018-06-01T04:33:50.497Z,52.07
2018-06-01T04:36:18.578Z,60.90
2018-06-01T04:38:46.647Z,52.90
2018-06-01T04:41:14.773Z,52.50
2018-06-01T04:43:42.840Z,51.40
2018-06-01T04:46:10.892Z,54.60
2018-06-01T04:48:38.982Z,55.00
2018-06-01T04:51:07.034Z,48.70
2018-06-01T04:53:35.166Z,57.20
2018-06-01T04:56:03.255Z,53.83
2018-06-01T04:58:31.237Z,53.43
2018-06-01T05:01:00.071Z,54.90
2018-06-01T05:03:28.100Z,59.50
2018-06-01T05:05:56.574Z,54.93
2018-06-01T05:08:24.648Z,60.70
2018-06-01T05:10:52.698Z,51.87
2018-06-01T05:13:21.568Z,55.77
2018-06-01T05:15:51.191Z,59.90
2018-06-01T05:18:19.196Z,57.03
2018-06-01T05:20:47.279Z,57.60
2018-06-01T05:23:15.349Z,58.83
2018-06-01T05:25:43.445Z,51.00
2018-06-01T05:28:11.477Z,58.43
2018-06-01T05:30:39.558Z,55.40
2018-06-01T05:33:07.616Z,53.53
2018-06-01T05:35:35.663Z,49.17
2018-06-01T05:38:03.771Z,46.43
2018-06-01T05:40:31.826Z,47.93
2018-06-01T05:42:59.883Z,45.80
2018-06-01T05:45:27.954Z,51.40
2018-06-01T05:47:56.045Z,50.90
2018-06-01T05:50:24.099Z,48.63
2018-06-01T05:52:52.205Z,43.43
2018-06-01T05:55:20.267Z,46.10
2018-06-01T05:57:48.385Z,44.37
2018-06-01T06:00:16.436Z,48.30
2018-06-01T06:02:44.532Z,44.07
2018-06-01T06:05:13.386Z,48.87
2018-06-01T06:07:41.465Z,46.67
2018-06-01T06:10:09.535Z,47.63
2018-06-01T06:12:37.579Z,43.47
2018-06-01T06:15:05.660Z,47.20
2018-06-01T06:17:33.731Z,45.50
2018-06-01T06:22:36.319Z,43.93
2018-06-01T06:25:04.401Z,47.30
2018-06-01T06:27:32.471Z,45.00
2018-06-01T06:30:00.511Z,43.47
2018-06-01T06:32:28.588Z,41.37
2018-06-01T06:34:56.719Z,43.73
2018-06-01T06:37:24.761Z,40.80
2018-06-01T06:39:52.823Z,46.50
2018-06-01T06:42:20.890Z,44.07
2018-06-01T06:44:48.974Z,46.57
2018-06-01T06:47:17.133Z,53.20
2018-06-01T06:49:45.302Z,43.67
2018-06-01T06:52:13.378Z,47.13
2018-06-01T06:54:41.461Z,47.80
2018-06-01T06:57:09.592Z,49.47
2018-06-01T06:59:37.655Z,44.67
2018-06-01T07:02:05.747Z,45.43
2018-06-01T07:04:33.831Z,92.17
2018-06-01T07:07:01.908Z,43.30
2018-06-01T07:09:29.966Z,48.57
2018-06-01T07:11:58.013Z,48.23
2018-06-01T07:14:26.865Z,46.20
2018-06-01T07:16:54.926Z,46.50
2018-06-01T07:19:23.059Z,47.63
2018-06-01T07:21:51.090Z,64.07
2018-06-01T07:24:19.152Z,48.97
2018-06-01T07:26:47.222Z,52.10
2018-06-01T07:29:15.289Z,48.97
2018-06-01T07:31:43.348Z,54.97
2018-06-01T07:34:11.457Z,52.83
2018-06-01T07:36:39.502Z,51.17
2018-06-01T07:39:07.600Z,49.50
2018-06-01T07:41:35.702Z,49.77
2018-06-01T07:44:04.595Z,44.20
2018-06-01T07:46:33.777Z,45.60
2018-06-01T07:49:02.271Z,50.37
2018-06-01T07:51:30.743Z,51.93
2018-06-01T07:53:59.564Z,49.30
2018-06-01T07:56:27.603Z,47.60
2018-06-01T07:58:56.440Z,48.73
2018-06-01T08:01:24.525Z,46.20
2018-06-01T08:03:52.620Z,46.40
2018-06-01T08:06:20.707Z,50.10
2018-06-01T08:08:49.542Z,51.53
2018-06-01T08:11:17.594Z,44.43
2018-06-01T08:13:45.682Z,50.43
2018-06-01T08:16:13.759Z,46.27
2018-06-01T08:18:41.812Z,50.53
2018-06-01T08:21:09.894Z,49.13
2018-06-01T08:23:37.973Z,47.70
2018-06-01T08:26:06.039Z,55.70
2018-06-01T08:31:09.750Z,55.07
2018-06-01T08:33:37.825Z,56.60
2018-06-01T08:36:05.930Z,49.83
2018-06-01T08:38:34.046Z,54.97
2018-06-01T08:41:03.704Z,59.53
2018-06-01T08:43:31.766Z,55.00
2018-06-01T08:45:59.884Z,55.30
2018-06-01T08:48:27.957Z,52.73
2018-06-01T08:50:57.512Z,57.23
2018-06-01T08:53:25.629Z,77.87
2018-06-01T08:55:53.662Z,58.43
2018-06-01T08:58:21.763Z,48.77
2018-06-01T09:00:49.847Z,46.30
2018-06-01T09:03:17.922Z,47.60
2018-06-01T09:05:45.970Z,45.07
2018-06-01T09:08:14.036Z,27.67
2018-06-01T09:10:42.114Z,20.97
2018-06-01T09:13:10.175Z,16.50
2018-06-01T09:15:38.238Z,15.67
2018-06-01T09:18:06.330Z,17.60
2018-06-01T09:20:34.378Z,16.67
2018-06-01T09:23:02.512Z,17.13
2018-06-01T09:25:30.531Z,21.00
2018-06-01T09:27:58.601Z,18.30
2018-06-01T09:30:26.671Z,20.40
2018-06-01T09:32:54.707Z,16.63
2018-06-01T09:35:22.873Z,24.87
2018-06-01T09:37:51.318Z,17.53
2018-06-01T09:40:20.393Z,18.50
2018-06-01T09:42:48.457Z,19.23
2018-06-01T09:45:16.593Z,25.57
2018-06-01T09:47:45.839Z,19.83
2018-06-01T09:50:14.662Z,19.20
2018-06-01T09:52:42.733Z,17.70
2018-06-01T09:55:10.812Z,17.37
2018-06-01T09:57:39.678Z,17.00
2018-06-01T10:00:07.716Z,18.70
2018-06-01T10:02:35.775Z,18.53
2018-06-01T10:05:03.838Z,24.33
2018-06-01T10:07:31.900Z,18.80
2018-06-01T10:10:05.722Z,19.93
2018-06-01T10:12:33.802Z,24.17
2018-06-01T10:15:01.875Z,19.27
2018-06-01T10:17:29.950Z,21.73
2018-06-01T10:19:58.011Z,23.30
2018-06-01T10:22:31.207Z,13.07
2018-06-01T10:25:00.157Z,11.50
2018-06-01T10:27:28.763Z,14.73
2018-06-01T10:55:01.724Z,17.80
2018-06-01T11:00:44.884Z,20.00
2018-06-01T11:03:43.729Z,23.70
2018-06-01T11:10:11.203Z,26.43
2018-06-01T11:15:39.282Z,24.43
2018-06-01T11:18:07.366Z,25.37
2018-06-01T11:20:35.443Z,23.97
2018-06-01T11:23:43.949Z,27.53
2018-06-01T11:26:27.918Z,30.13
2018-06-01T11:28:57.503Z,28.30
2018-06-01T11:31:25.614Z,28.20
2018-06-01T11:33:58.039Z,26.93
2018-06-01T11:36:28.957Z,27.87
2018-06-01T11:42:36.715Z,41.53
2018-06-01T11:45:26.567Z,29.10
2018-06-01T11:48:17.947Z,29.57
2018-06-01T12:08:08.573Z,21.60
2018-06-01T12:10:36.637Z,25.70
2018-06-01T12:13:10.568Z,24.10
2018-06-01T12:15:52.519Z,18.63
2018-06-01T12:25:24.763Z,21.60
2018-06-01T12:34:38.724Z,18.20
2018-06-01T12:37:16.861Z,17.23
2018-06-01T12:39:45.731Z,17.10
2018-06-01T12:42:45.088Z,16.30
